sensor_id;sensor_type;location;lat;lon;timestamp;temperature;humidity
65470;DHT22;52067;50.710;14.492;2023-06-22T00:00:44;19.34;80.26
65470;DHT22;52067;50.710;14.492;2023-06-22T00:03:10;19.27;80.64
65470;DHT22;52067;50.710;14.492;2023-06-22T00:05:35;19.27;80.53
65470;DHT22;52067;50.710;14.492;2023-06-22T00:08:03;19.24;80.71
65470;DHT22;52067;50.710;14.492;2023-06-22T00:10:29;19.14;81.31
65470;DHT22;52067;50.710;14.492;2023-06-22T00:12:55;19.17;80.96
65470;DHT22;52067;50.710;14.492;2023-06-22T00:15:20;19.07;81.39
65470;DHT22;52067;50.710;14.492;2023-06-22T00:17:45;19.07;81.42
65470;DHT22;52067;50.710;14.492;2023-06-22T00:20:11;19.19;80.83
65470;DHT22;52067;50.710;14.492;2023-06-22T00:22:36;19.22;80.87
65470;DHT22;52067;50.710;14.492;2023-06-22T00:25:06;19.04;81.09
65470;DHT22;52067;50.710;14.492;2023-06-22T00:27:32;19.11;81.23
65470;DHT22;52067;50.710;14.492;2023-06-22T00:29:57;19.04;80.82
65470;DHT22;52067;50.710;14.492;2023-06-22T00:32:23;19.07;80.64
65470;DHT22;52067;50.710;14.492;2023-06-22T00:34:48;18.76;80.98
65470;DHT22;52067;50.710;14.492;2023-06-22T00:37:15;18.87;81.18
65470;DHT22;52067;50.710;14.492;2023-06-22T00:39:41;18.66;82.07
65470;DHT22;52067;50.710;14.492;2023-06-22T00:42:06;18.38;83.31
65470;DHT22;52067;50.710;14.492;2023-06-22T00:44:32;18.12;83.78
65470;DHT22;52067;50.710;14.492;2023-06-22T00:46:57;18.22;83.65
65470;DHT22;52067;50.710;14.492;2023-06-22T00:49:25;18.29;83.02
65470;DHT22;52067;50.710;14.492;2023-06-22T00:51:50;18.13;83.75
65470;DHT22;52067;50.710;14.492;2023-06-22T00:54:16;18.00;84.29
65470;DHT22;52067;50.710;14.492;2023-06-22T00:56:41;17.75;84.70
65470;DHT22;52067;50.710;14.492;2023-06-22T00:59:07;17.84;84.85
65470;DHT22;52067;50.710;14.492;2023-06-22T01:01:37;17.85;84.72
65470;DHT22;52067;50.710;14.492;2023-06-22T01:04:06;18.01;84.16
65470;DHT22;52067;50.710;14.492;2023-06-22T01:06:35;17.97;84.21
65470;DHT22;52067;50.710;14.492;2023-06-22T01:09:19;17.92;84.33
65470;DHT22;52067;50.710;14.492;2023-06-22T01:11:48;17.92;84.68
65470;DHT22;52067;50.710;14.492;2023-06-22T01:16:53;17.66;85.14
65470;DHT22;52067;50.710;14.492;2023-06-22T01:19:44;17.80;84.16
65470;DHT22;52067;50.710;14.492;2023-06-22T01:22:16;17.78;84.14
65470;DHT22;52067;50.710;14.492;2023-06-22T01:24:55;17.78;84.27
65470;DHT22;52067;50.710;14.492;2023-06-22T01:27:36;17.63;85.71
65470;DHT22;52067;50.710;14.492;2023-06-22T01:30:07;17.73;85.48
65470;DHT22;52067;50.710;14.492;2023-06-22T01:32:36;17.71;85.31
65470;DHT22;52067;50.710;14.492;2023-06-22T01:35:05;17.87;84.20
65470;DHT22;52067;50.710;14.492;2023-06-22T01:37:32;17.95;83.80
65470;DHT22;52067;50.710;14.492;2023-06-22T01:39:59;17.90;84.08
65470;DHT22;52067;50.710;14.492;2023-06-22T01:42:25;17.92;83.86
65470;DHT22;52067;50.710;14.492;2023-06-22T01:44:54;17.82;84.31
65470;DHT22;52067;50.710;14.492;2023-06-22T01:47:21;17.85;84.33
65470;DHT22;52067;50.710;14.492;2023-06-22T01:49:47;17.81;84.24
65470;DHT22;52067;50.710;14.492;2023-06-22T01:52:13;17.70;84.59
65470;DHT22;52067;50.710;14.492;2023-06-22T01:54:39;17.46;85.06
65470;DHT22;52067;50.710;14.492;2023-06-22T01:57:05;17.47;84.57
65470;DHT22;52067;50.710;14.492;2023-06-22T01:59:53;17.40;85.27
65470;DHT22;52067;50.710;14.492;2023-06-22T02:02:22;17.44;84.77
65470;DHT22;52067;50.710;14.492;2023-06-22T02:05:05;17.06;85.64
65470;DHT22;52067;50.710;14.492;2023-06-22T02:07:36;17.16;85.10
65470;DHT22;52067;50.710;14.492;2023-06-22T02:10:04;17.33;84.92
65470;DHT22;52067;50.710;14.492;2023-06-22T02:12:32;17.33;85.22
65470;DHT22;52067;50.710;14.492;2023-06-22T02:14:59;17.18;85.73
65470;DHT22;52067;50.710;14.492;2023-06-22T02:17:26;16.99;86.14
65470;DHT22;52067;50.710;14.492;2023-06-22T02:19:51;17.01;86.09
65470;DHT22;52067;50.710;14.492;2023-06-22T02:22:17;17.08;85.42
65470;DHT22;52067;50.710;14.492;2023-06-22T02:24:43;17.15;85.37
65470;DHT22;52067;50.710;14.492;2023-06-22T02:27:08;17.09;85.88
65470;DHT22;52067;50.710;14.492;2023-06-22T02:29:34;17.12;85.55
65470;DHT22;52067;50.710;14.492;2023-06-22T02:31:59;16.64;87.08
65470;DHT22;52067;50.710;14.492;2023-06-22T02:34:25;16.63;87.05
65470;DHT22;52067;50.710;14.492;2023-06-22T02:36:51;16.78;86.47
65470;DHT22;52067;50.710;14.492;2023-06-22T02:39:20;16.79;85.81
65470;DHT22;52067;50.710;14.492;2023-06-22T02:41:52;16.53;86.68
65470;DHT22;52067;50.710;14.492;2023-06-22T02:44:18;16.79;86.19
65470;DHT22;52067;50.710;14.492;2023-06-22T02:46:44;16.65;86.44
65470;DHT22;52067;50.710;14.492;2023-06-22T02:49:10;16.74;86.37
65470;DHT22;52067;50.710;14.492;2023-06-22T02:51:38;16.85;86.41
65470;DHT22;52067;50.710;14.492;2023-06-22T02:54:07;16.91;86.25
65470;DHT22;52067;50.710;14.492;2023-06-22T02:56:32;16.86;85.94
65470;DHT22;52067;50.710;14.492;2023-06-22T02:58:58;16.76;85.99
65470;DHT22;52067;50.710;14.492;2023-06-22T03:01:29;16.68;87.14
65470;DHT22;52067;50.710;14.492;2023-06-22T03:04:06;16.60;87.16
65470;DHT22;52067;50.710;14.492;2023-06-22T03:06:31;16.61;87.30
65470;DHT22;52067;50.710;14.492;2023-06-22T03:09:00;16.75;86.84
65470;DHT22;52067;50.710;14.492;2023-06-22T03:11:26;16.84;86.52
65470;DHT22;52067;50.710;14.492;2023-06-22T03:13:51;16.75;87.22
65470;DHT22;52067;50.710;14.492;2023-06-22T03:16:18;16.88;86.60
65470;DHT22;52067;50.710;14.492;2023-06-22T03:18:44;16.85;86.36
65470;DHT22;52067;50.710;14.492;2023-06-22T03:21:09;16.91;86.42
65470;DHT22;52067;50.710;14.492;2023-06-22T03:23:35;16.86;86.55
65470;DHT22;52067;50.710;14.492;2023-06-22T03:26:01;16.72;87.36
65470;DHT22;52067;50.710;14.492;2023-06-22T03:28:27;16.88;86.83
65470;DHT22;52067;50.710;14.492;2023-06-22T03:30:52;16.72;86.51
65470;DHT22;52067;50.710;14.492;2023-06-22T03:33:17;16.84;86.47
65470;DHT22;52067;50.710;14.492;2023-06-22T03:35:43;16.88;86.69
65470;DHT22;52067;50.710;14.492;2023-06-22T03:38:08;16.64;87.73
65470;DHT22;52067;50.710;14.492;2023-06-22T03:40:34;16.51;88.29
65470;DHT22;52067;50.710;14.492;2023-06-22T03:42:59;16.63;88.10
65470;DHT22;52067;50.710;14.492;2023-06-22T03:45:24;16.57;87.93
65470;DHT22;52067;50.710;14.492;2023-06-22T03:47:50;16.89;86.86
65470;DHT22;52067;50.710;14.492;2023-06-22T03:50:15;16.85;86.79
65470;DHT22;52067;50.710;14.492;2023-06-22T03:52:40;17.01;86.27
65470;DHT22;52067;50.710;14.492;2023-06-22T03:55:07;17.20;85.78
65470;DHT22;52067;50.710;14.492;2023-06-22T03:57:33;17.37;85.83
65470;DHT22;52067;50.710;14.492;2023-06-22T03:59:58;17.54;85.17
65470;DHT22;52067;50.710;14.492;2023-06-22T04:02:24;17.64;85.79
65470;DHT22;52067;50.710;14.492;2023-06-22T04:04:50;17.70;85.65
65470;DHT22;52067;50.710;14.492;2023-06-22T04:07:15;17.69;86.10
65470;DHT22;52067;50.710;14.492;2023-06-22T04:09:40;17.71;85.32
65470;DHT22;52067;50.710;14.492;2023-06-22T04:12:06;17.73;85.80
65470;DHT22;52067;50.710;14.492;2023-06-22T04:14:32;17.92;85.30
65470;DHT22;52067;50.710;14.492;2023-06-22T04:16:57;17.98;85.50
65470;DHT22;52067;50.710;14.492;2023-06-22T04:19:23;18.04;85.42
65470;DHT22;52067;50.710;14.492;2023-06-22T04:21:48;18.12;85.47
65470;DHT22;52067;50.710;14.492;2023-06-22T04:24:14;18.32;84.29
65470;DHT22;52067;50.710;14.492;2023-06-22T04:26:39;18.43;83.74
65470;DHT22;52067;50.710;14.492;2023-06-22T04:29:07;18.45;84.46
65470;DHT22;52067;50.710;14.492;2023-06-22T04:31:34;18.71;83.59
65470;DHT22;52067;50.710;14.492;2023-06-22T04:34:06;18.94;82.73
65470;DHT22;52067;50.710;14.492;2023-06-22T04:36:37;19.07;82.16
65470;DHT22;52067;50.710;14.492;2023-06-22T04:39:12;19.19;82.08
65470;DHT22;52067;50.710;14.492;2023-06-22T04:41:38;19.03;81.62
65470;DHT22;52067;50.710;14.492;2023-06-22T04:46:36;19.22;81.81
65470;DHT22;52067;50.710;14.492;2023-06-22T04:49:04;18.94;83.04
65470;DHT22;52067;50.710;14.492;2023-06-22T04:51:32;19.11;82.16
65470;DHT22;52067;50.710;14.492;2023-06-22T04:53:57;19.35;81.77
65470;DHT22;52067;50.710;14.492;2023-06-22T04:56:26;19.41;82.18
65470;DHT22;52067;50.710;14.492;2023-06-22T04:58:53;19.66;81.52
65470;DHT22;52067;50.710;14.492;2023-06-22T05:01:23;19.82;81.24
65470;DHT22;52067;50.710;14.492;2023-06-22T05:03:49;19.85;80.50
65470;DHT22;52067;50.710;14.492;2023-06-22T05:06:14;20.06;80.03
65470;DHT22;52067;50.710;14.492;2023-06-22T05:08:40;20.27;79.70
65470;DHT22;52067;50.710;14.492;2023-06-22T05:11:06;20.41;79.68
65470;DHT22;52067;50.710;14.492;2023-06-22T05:13:32;20.38;80.58
65470;DHT22;52067;50.710;14.492;2023-06-22T05:15:57;20.43;79.52
65470;DHT22;52067;50.710;14.492;2023-06-22T05:18:30;20.64;79.35
65470;DHT22;52067;50.710;14.492;2023-06-22T05:20:56;20.79;78.73
65470;DHT22;52067;50.710;14.492;2023-06-22T05:23:21;20.93;78.82
65470;DHT22;52067;50.710;14.492;2023-06-22T05:25:47;20.89;79.21
65470;DHT22;52067;50.710;14.492;2023-06-22T05:28:12;20.91;79.74
65470;DHT22;52067;50.710;14.492;2023-06-22T05:30:37;20.86;80.19
65470;DHT22;52067;50.710;14.492;2023-06-22T05:33:03;20.85;81.18
65470;DHT22;52067;50.710;14.492;2023-06-22T05:35:28;20.92;80.78
65470;DHT22;52067;50.710;14.492;2023-06-22T05:37:54;21.06;79.98
65470;DHT22;52067;50.710;14.492;2023-06-22T05:40:20;21.02;81.67
65470;DHT22;52067;50.710;14.492;2023-06-22T05:42:46;21.18;79.96
65470;DHT22;52067;50.710;14.492;2023-06-22T05:45:11;21.50;79.88
65470;DHT22;52067;50.710;14.492;2023-06-22T05:47:37;21.71;78.70
65470;DHT22;52067;50.710;14.492;2023-06-22T05:50:02;21.87;77.93
65470;DHT22;52067;50.710;14.492;2023-06-22T05:52:32;22.13;76.30
65470;DHT22;52067;50.710;14.492;2023-06-22T05:54:57;21.99;77.05
65470;DHT22;52067;50.710;14.492;2023-06-22T05:57:22;22.05;75.76
65470;DHT22;52067;50.710;14.492;2023-06-22T05:59:48;22.25;75.91
65470;DHT22;52067;50.710;14.492;2023-06-22T06:02:13;22.55;73.57
65470;DHT22;52067;50.710;14.492;2023-06-22T06:04:39;22.98;73.34
65470;DHT22;52067;50.710;14.492;2023-06-22T06:07:04;22.86;75.89
65470;DHT22;52067;50.710;14.492;2023-06-22T06:09:30;22.69;74.61
65470;DHT22;52067;50.710;14.492;2023-06-22T06:11:56;23.03;72.78
65470;DHT22;52067;50.710;14.492;2023-06-22T06:14:21;22.93;71.89
65470;DHT22;52067;50.710;14.492;2023-06-22T06:16:47;23.29;71.62
65470;DHT22;52067;50.710;14.492;2023-06-22T06:19:13;23.54;71.87
65470;DHT22;52067;50.710;14.492;2023-06-22T06:21:38;23.73;71.66
65470;DHT22;52067;50.710;14.492;2023-06-22T06:24:04;23.89;69.83
65470;DHT22;52067;50.710;14.492;2023-06-22T06:26:29;23.92;69.97
65470;DHT22;52067;50.710;14.492;2023-06-22T06:28:58;24.02;70.29
65470;DHT22;52067;50.710;14.492;2023-06-22T06:31:24;24.03;71.85
65470;DHT22;52067;50.710;14.492;2023-06-22T06:33:49;24.25;69.89
65470;DHT22;52067;50.710;14.492;2023-06-22T06:36:15;24.14;70.16
65470;DHT22;52067;50.710;14.492;2023-06-22T06:38:41;24.27;69.05
65470;DHT22;52067;50.710;14.492;2023-06-22T06:41:07;24.37;68.21
65470;DHT22;52067;50.710;14.492;2023-06-22T06:43:32;24.06;68.31
65470;DHT22;52067;50.710;14.492;2023-06-22T06:45:57;24.00;68.19
65470;DHT22;52067;50.710;14.492;2023-06-22T06:48:23;24.12;69.32
65470;DHT22;52067;50.710;14.492;2023-06-22T06:50:48;24.31;68.89
65470;DHT22;52067;50.710;14.492;2023-06-22T06:53:14;24.55;68.50
65470;DHT22;52067;50.710;14.492;2023-06-22T06:55:39;24.65;68.01
65470;DHT22;52067;50.710;14.492;2023-06-22T06:58:04;24.57;66.02
65470;DHT22;52067;50.710;14.492;2023-06-22T07:00:33;24.62;65.66
65470;DHT22;52067;50.710;14.492;2023-06-22T07:02:58;24.67;66.47
65470;DHT22;52067;50.710;14.492;2023-06-22T07:05:23;24.83;65.32
65470;DHT22;52067;50.710;14.492;2023-06-22T07:07:49;24.93;68.28
65470;DHT22;52067;50.710;14.492;2023-06-22T07:10:15;24.91;69.04
65470;DHT22;52067;50.710;14.492;2023-06-22T07:12:40;24.95;67.54
65470;DHT22;52067;50.710;14.492;2023-06-22T07:15:07;25.02;66.08
65470;DHT22;52067;50.710;14.492;2023-06-22T07:17:33;25.16;66.47
65470;DHT22;52067;50.710;14.492;2023-06-22T07:19:59;24.98;66.04
65470;DHT22;52067;50.710;14.492;2023-06-22T07:22:24;25.02;67.23
65470;DHT22;52067;50.710;14.492;2023-06-22T07:24:50;25.15;66.76
65470;DHT22;52067;50.710;14.492;2023-06-22T07:27:16;25.24;66.11
65470;DHT22;52067;50.710;14.492;2023-06-22T07:29:46;25.31;66.07
65470;DHT22;52067;50.710;14.492;2023-06-22T07:32:11;25.46;66.34
65470;DHT22;52067;50.710;14.492;2023-06-22T07:34:36;25.33;66.61
65470;DHT22;52067;50.710;14.492;2023-06-22T07:37:02;25.37;66.38
65470;DHT22;52067;50.710;14.492;2023-06-22T07:39:28;25.29;66.33
65470;DHT22;52067;50.710;14.492;2023-06-22T07:41:54;25.40;66.47
65470;DHT22;52067;50.710;14.492;2023-06-22T07:44:19;25.51;65.95
65470;DHT22;52067;50.710;14.492;2023-06-22T07:46:44;25.54;65.91
65470;DHT22;52067;50.710;14.492;2023-06-22T07:49:10;25.53;65.82
65470;DHT22;52067;50.710;14.492;2023-06-22T07:51:35;25.43;65.84
65470;DHT22;52067;50.710;14.492;2023-06-22T07:54:01;25.41;65.57
65470;DHT22;52067;50.710;14.492;2023-06-22T07:56:26;25.39;65.75
65470;DHT22;52067;50.710;14.492;2023-06-22T07:58:52;25.41;66.31
65470;DHT22;52067;50.710;14.492;2023-06-22T08:01:18;25.53;65.80
65470;DHT22;52067;50.710;14.492;2023-06-22T08:03:48;25.99;65.75
65470;DHT22;52067;50.710;14.492;2023-06-22T08:06:14;26.21;64.16
65470;DHT22;52067;50.710;14.492;2023-06-22T08:08:39;26.32;63.85
65470;DHT22;52067;50.710;14.492;2023-06-22T08:11:05;26.37;64.34
65470;DHT22;52067;50.710;14.492;2023-06-22T08:13:31;26.32;64.99
65470;DHT22;52067;50.710;14.492;2023-06-22T08:15:56;26.42;65.35
65470;DHT22;52067;50.710;14.492;2023-06-22T08:18:21;26.50;64.73
65470;DHT22;52067;50.710;14.492;2023-06-22T08:20:47;26.18;66.68
65470;DHT22;52067;50.710;14.492;2023-06-22T08:23:12;26.26;66.91
65470;DHT22;52067;50.710;14.492;2023-06-22T08:25:38;26.83;64.31
65470;DHT22;52067;50.710;14.492;2023-06-22T08:28:03;27.05;63.65
65470;DHT22;52067;50.710;14.492;2023-06-22T08:30:29;27.11;67.54
65470;DHT22;52067;50.710;14.492;2023-06-22T08:32:55;27.41;64.61
65470;DHT22;52067;50.710;14.492;2023-06-22T08:35:22;27.65;64.58
65470;DHT22;52067;50.710;14.492;2023-06-22T08:37:48;27.58;64.69
65470;DHT22;52067;50.710;14.492;2023-06-22T08:40:18;27.32;63.96
65470;DHT22;52067;50.710;14.492;2023-06-22T08:42:45;27.74;61.74
65470;DHT22;52067;50.710;14.492;2023-06-22T08:45:11;27.25;62.83
65470;DHT22;52067;50.710;14.492;2023-06-22T08:47:37;27.82;60.17
65470;DHT22;52067;50.710;14.492;2023-06-22T08:50:03;28.28;59.76
65470;DHT22;52067;50.710;14.492;2023-06-22T08:52:29;27.70;60.94
65470;DHT22;52067;50.710;14.492;2023-06-22T08:54:54;28.34;59.75
65470;DHT22;52067;50.710;14.492;2023-06-22T08:57:21;28.24;58.86
65470;DHT22;52067;50.710;14.492;2023-06-22T08:59:46;27.74;60.42
65470;DHT22;52067;50.710;14.492;2023-06-22T09:02:12;28.11;61.30
65470;DHT22;52067;50.710;14.492;2023-06-22T09:04:37;28.45;57.96
65470;DHT22;52067;50.710;14.492;2023-06-22T09:07:03;28.41;58.71
65470;DHT22;52067;50.710;14.492;2023-06-22T09:09:28;28.40;60.24
65470;DHT22;52067;50.710;14.492;2023-06-22T09:11:54;28.78;58.05
65470;DHT22;52067;50.710;14.492;2023-06-22T09:14:19;28.34;58.51
65470;DHT22;52067;50.710;14.492;2023-06-22T09:16:45;28.31;61.19
65470;DHT22;52067;50.710;14.492;2023-06-22T09:19:10;27.89;58.91
65470;DHT22;52067;50.710;14.492;2023-06-22T09:21:36;27.69;60.54
65470;DHT22;52067;50.710;14.492;2023-06-22T09:24:01;28.21;59.30
65470;DHT22;52067;50.710;14.492;2023-06-22T09:26:27;27.94;59.84
65470;DHT22;52067;50.710;14.492;2023-06-22T09:28:52;28.67;56.99
65470;DHT22;52067;50.710;14.492;2023-06-22T09:31:18;28.89;56.08
65470;DHT22;52067;50.710;14.492;2023-06-22T09:33:50;28.99;54.15
65470;DHT22;52067;50.710;14.492;2023-06-22T09:36:15;29.29;52.67
65470;DHT22;52067;50.710;14.492;2023-06-22T09:38:42;29.09;56.73
65470;DHT22;52067;50.710;14.492;2023-06-22T09:41:07;29.30;54.40
65470;DHT22;52067;50.710;14.492;2023-06-22T09:43:33;29.42;56.34
65470;DHT22;52067;50.710;14.492;2023-06-22T09:46:01;29.49;55.06
65470;DHT22;52067;50.710;14.492;2023-06-22T09:48:27;29.37;53.93
65470;DHT22;52067;50.710;14.492;2023-06-22T09:50:53;29.08;53.72
65470;DHT22;52067;50.710;14.492;2023-06-22T09:53:19;29.47;53.76
65470;DHT22;52067;50.710;14.492;2023-06-22T09:55:44;29.50;55.65
65470;DHT22;52067;50.710;14.492;2023-06-22T09:58:10;29.91;53.58
65470;DHT22;52067;50.710;14.492;2023-06-22T10:00:35;29.81;53.88
65470;DHT22;52067;50.710;14.492;2023-06-22T10:03:00;29.33;54.68
65470;DHT22;52067;50.710;14.492;2023-06-22T10:05:26;29.13;53.45
65470;DHT22;52067;50.710;14.492;2023-06-22T10:07:51;28.95;54.40
65470;DHT22;52067;50.710;14.492;2023-06-22T10:10:17;29.30;53.01
65470;DHT22;52067;50.710;14.492;2023-06-22T10:12:46;29.71;51.93
65470;DHT22;52067;50.710;14.492;2023-06-22T10:15:12;30.00;52.02
65470;DHT22;52067;50.710;14.492;2023-06-22T10:17:38;30.04;53.60
65470;DHT22;52067;50.710;14.492;2023-06-22T10:20:06;29.60;52.31
65470;DHT22;52067;50.710;14.492;2023-06-22T10:22:41;29.57;52.80
65470;DHT22;52067;50.710;14.492;2023-06-22T10:25:07;30.08;51.76
65470;DHT22;52067;50.710;14.492;2023-06-22T10:27:33;30.09;52.16
65470;DHT22;52067;50.710;14.492;2023-06-22T10:29:58;30.02;51.23
65470;DHT22;52067;50.710;14.492;2023-06-22T10:32:24;30.45;51.58
65470;DHT22;52067;50.710;14.492;2023-06-22T10:34:49;30.62;51.67
65470;DHT22;52067;50.710;14.492;2023-06-22T10:37:14;30.82;49.21
65470;DHT22;52067;50.710;14.492;2023-06-22T10:39:40;30.63;49.34
65470;DHT22;52067;50.710;14.492;2023-06-22T10:42:05;30.51;48.84
65470;DHT22;52067;50.710;14.492;2023-06-22T10:44:31;30.19;51.50
65470;DHT22;52067;50.710;14.492;2023-06-22T10:46:56;31.15;50.59
65470;DHT22;52067;50.710;14.492;2023-06-22T10:49:21;32.37;47.76
65470;DHT22;52067;50.710;14.492;2023-06-22T10:51:47;32.75;46.83
65470;DHT22;52067;50.710;14.492;2023-06-22T10:54:12;31.76;45.46
65470;DHT22;52067;50.710;14.492;2023-06-22T10:56:39;33.54;43.66
65470;DHT22;52067;50.710;14.492;2023-06-22T10:59:05;34.15;41.82
65470;DHT22;52067;50.710;14.492;2023-06-22T11:01:30;33.05;44.52
65470;DHT22;52067;50.710;14.492;2023-06-22T11:03:58;34.47;42.04
65470;DHT22;52067;50.710;14.492;2023-06-22T11:06:24;34.17;45.09
65470;DHT22;52067;50.710;14.492;2023-06-22T11:08:49;35.06;40.43
65470;DHT22;52067;50.710;14.492;2023-06-22T11:11:15;33.74;42.40
65470;DHT22;52067;50.710;14.492;2023-06-22T11:13:43;33.81;42.06
65470;DHT22;52067;50.710;14.492;2023-06-22T11:16:09;34.95;40.85
65470;DHT22;52067;50.710;14.492;2023-06-22T11:18:34;33.89;40.35
65470;DHT22;52067;50.710;14.492;2023-06-22T11:21:00;32.99;42.44
65470;DHT22;52067;50.710;14.492;2023-06-22T11:23:25;32.17;44.65
65470;DHT22;52067;50.710;14.492;2023-06-22T11:25:52;30.74;48.26
65470;DHT22;52067;50.710;14.492;2023-06-22T11:28:18;31.15;47.89
65470;DHT22;52067;50.710;14.492;2023-06-22T11:30:43;30.60;48.59
65470;DHT22;52067;50.710;14.492;2023-06-22T11:33:08;31.28;46.68
65470;DHT22;52067;50.710;14.492;2023-06-22T11:35:34;32.00;45.82
65470;DHT22;52067;50.710;14.492;2023-06-22T11:37:59;34.10;42.35
65470;DHT22;52067;50.710;14.492;2023-06-22T11:40:24;35.13;39.13
65470;DHT22;52067;50.710;14.492;2023-06-22T11:42:50;36.50;39.63
65470;DHT22;52067;50.710;14.492;2023-06-22T11:45:15;37.41;37.43
65470;DHT22;52067;50.710;14.492;2023-06-22T11:47:42;35.55;41.01
65470;DHT22;52067;50.710;14.492;2023-06-22T11:50:08;35.58;38.29
65470;DHT22;52067;50.710;14.492;2023-06-22T11:52:34;35.88;40.63
65470;DHT22;52067;50.710;14.492;2023-06-22T11:55:01;36.08;36.87
65470;DHT22;52067;50.710;14.492;2023-06-22T11:57:29;35.98;38.38
65470;DHT22;52067;50.710;14.492;2023-06-22T11:59:54;37.49;36.28
65470;DHT22;52067;50.710;14.492;2023-06-22T12:02:19;37.06;37.19
65470;DHT22;52067;50.710;14.492;2023-06-22T12:04:45;34.85;38.72
65470;DHT22;52067;50.710;14.492;2023-06-22T12:07:10;34.08;40.87
65470;DHT22;52067;50.710;14.492;2023-06-22T12:09:35;33.78;42.66
65470;DHT22;52067;50.710;14.492;2023-06-22T12:12:01;32.82;42.36
65470;DHT22;52067;50.710;14.492;2023-06-22T12:14:26;33.27;42.77
65470;DHT22;52067;50.710;14.492;2023-06-22T12:16:52;33.21;42.63
65470;DHT22;52067;50.710;14.492;2023-06-22T12:19:17;33.16;43.08
65470;DHT22;52067;50.710;14.492;2023-06-22T12:21:42;33.90;43.55
65470;DHT22;52067;50.710;14.492;2023-06-22T12:24:10;32.94;43.62
65470;DHT22;52067;50.710;14.492;2023-06-22T12:26:36;33.14;44.01
65470;DHT22;52067;50.710;14.492;2023-06-22T12:29:01;33.32;42.30
65470;DHT22;52067;50.710;14.492;2023-06-22T12:31:27;32.43;45.65
65470;DHT22;52067;50.710;14.492;2023-06-22T12:33:52;33.43;42.20
65470;DHT22;52067;50.710;14.492;2023-06-22T12:36:18;34.78;40.34
65470;DHT22;52067;50.710;14.492;2023-06-22T12:38:43;35.02;39.93
65470;DHT22;52067;50.710;14.492;2023-06-22T12:41:09;36.02;38.72
65470;DHT22;52067;50.710;14.492;2023-06-22T12:43:34;36.57;38.00
65470;DHT22;52067;50.710;14.492;2023-06-22T12:45:59;37.22;37.64
65470;DHT22;52067;50.710;14.492;2023-06-22T12:48:26;37.86;36.62
65470;DHT22;52067;50.710;14.492;2023-06-22T12:50:52;37.72;34.89
65470;DHT22;52067;50.710;14.492;2023-06-22T12:53:17;36.13;38.68
65470;DHT22;52067;50.710;14.492;2023-06-22T12:55:43;37.35;37.88
65470;DHT22;52067;50.710;14.492;2023-06-22T12:58:08;35.03;40.04
65470;DHT22;52067;50.710;14.492;2023-06-22T13:00:33;36.66;36.15
65470;DHT22;52067;50.710;14.492;2023-06-22T13:02:59;38.40;33.20
65470;DHT22;52067;50.710;14.492;2023-06-22T13:05:24;38.70;33.91
65470;DHT22;52067;50.710;14.492;2023-06-22T13:07:49;39.46;32.50
65470;DHT22;52067;50.710;14.492;2023-06-22T13:10:15;39.50;32.89
65470;DHT22;52067;50.710;14.492;2023-06-22T13:12:40;38.60;32.40
65470;DHT22;52067;50.710;14.492;2023-06-22T13:15:06;37.97;33.30
65470;DHT22;52067;50.710;14.492;2023-06-22T13:17:31;38.40;32.02
65470;DHT22;52067;50.710;14.492;2023-06-22T13:19:57;39.06;30.68
65470;DHT22;52067;50.710;14.492;2023-06-22T13:22:27;38.65;32.29
65470;DHT22;52067;50.710;14.492;2023-06-22T13:24:54;38.10;33.93
65470;DHT22;52067;50.710;14.492;2023-06-22T13:27:19;39.42;31.83
65470;DHT22;52067;50.710;14.492;2023-06-22T13:29:45;35.70;37.88
65470;DHT22;52067;50.710;14.492;2023-06-22T13:32:10;38.06;33.60
65470;DHT22;52067;50.710;14.492;2023-06-22T13:34:35;38.57;32.04
65470;DHT22;52067;50.710;14.492;2023-06-22T13:37:01;38.14;32.36
65470;DHT22;52067;50.710;14.492;2023-06-22T13:39:26;36.81;35.09
65470;DHT22;52067;50.710;14.492;2023-06-22T13:41:52;36.18;35.54
65470;DHT22;52067;50.710;14.492;2023-06-22T13:44:17;34.29;37.62
65470;DHT22;52067;50.710;14.492;2023-06-22T13:46:42;35.80;37.23
65470;DHT22;52067;50.710;14.492;2023-06-22T13:49:08;35.16;37.09
65470;DHT22;52067;50.710;14.492;2023-06-22T13:51:33;35.47;36.81
65470;DHT22;52067;50.710;14.492;2023-06-22T13:53:59;36.42;35.01
65470;DHT22;52067;50.710;14.492;2023-06-22T13:56:24;35.70;35.60
65470;DHT22;52067;50.710;14.492;2023-06-22T13:58:49;35.44;35.68
65470;DHT22;52067;50.710;14.492;2023-06-22T14:01:15;35.33;36.51
65470;DHT22;52067;50.710;14.492;2023-06-22T14:03:40;35.31;37.74
65470;DHT22;52067;50.710;14.492;2023-06-22T14:06:05;35.61;38.84
65470;DHT22;52067;50.710;14.492;2023-06-22T14:08:31;35.75;36.20
65470;DHT22;52067;50.710;14.492;2023-06-22T14:10:57;36.29;35.72
65470;DHT22;52067;50.710;14.492;2023-06-22T14:13:22;36.64;35.20
65470;DHT22;52067;50.710;14.492;2023-06-22T14:15:48;36.87;34.73
65470;DHT22;52067;50.710;14.492;2023-06-22T14:18:13;36.06;36.10
65470;DHT22;52067;50.710;14.492;2023-06-22T14:20:39;36.95;35.10
65470;DHT22;52067;50.710;14.492;2023-06-22T14:23:05;34.45;40.45
65470;DHT22;52067;50.710;14.492;2023-06-22T14:25:30;36.33;36.48
65470;DHT22;52067;50.710;14.492;2023-06-22T14:27:56;36.56;35.98
65470;DHT22;52067;50.710;14.492;2023-06-22T14:30:21;37.06;35.71
65470;DHT22;52067;50.710;14.492;2023-06-22T14:32:47;37.61;34.84
65470;DHT22;52067;50.710;14.492;2023-06-22T14:35:12;36.98;35.32
65470;DHT22;52067;50.710;14.492;2023-06-22T14:37:38;37.43;35.93
65470;DHT22;52067;50.710;14.492;2023-06-22T14:40:03;38.12;33.44
65470;DHT22;52067;50.710;14.492;2023-06-22T14:42:29;37.66;33.27
65470;DHT22;52067;50.710;14.492;2023-06-22T14:44:55;36.09;36.32
65470;DHT22;52067;50.710;14.492;2023-06-22T14:47:21;37.01;35.32
65470;DHT22;52067;50.710;14.492;2023-06-22T14:49:47;36.97;34.45
65470;DHT22;52067;50.710;14.492;2023-06-22T14:52:13;36.84;35.59
65470;DHT22;52067;50.710;14.492;2023-06-22T14:54:39;38.00;33.38
65470;DHT22;52067;50.710;14.492;2023-06-22T14:57:04;37.80;32.78
65470;DHT22;52067;50.710;14.492;2023-06-22T14:59:30;36.56;35.56
65470;DHT22;52067;50.710;14.492;2023-06-22T15:01:55;37.43;34.19
65470;DHT22;52067;50.710;14.492;2023-06-22T15:04:21;37.68;33.56
65470;DHT22;52067;50.710;14.492;2023-06-22T15:06:46;37.35;33.11
65470;DHT22;52067;50.710;14.492;2023-06-22T15:09:12;36.74;34.30
65470;DHT22;52067;50.710;14.492;2023-06-22T15:11:37;36.43;35.50
65470;DHT22;52067;50.710;14.492;2023-06-22T15:14:02;36.56;34.82